Time;durP1;ratioP1;P1;durP2;ratioP2;P2;SDS_P1;SDS_P2;PMS_P1;PMS_P2;Temp;Humidity;BMP_temperature;BMP_pressure;BME280_temperature;BME280_humidity;BME280_pressure;Samples;Min_cycle;Max_cycle;Signal;HPM_P1;HPM_P2
2023/07/25 00:06:40;;;;;;;4.57;2.20;;;25.30;33.00;;;;;;20918028;28;20045;-59
2023/07/25 00:16:40;;;;;;;41.67;24.60;;;25.10;33.30;;;;;;20918407;28;20044;-58
2023/07/25 00:26:41;;;;;;;7.60;4.33;;;25.00;34.10;;;;;;20916787;28;20110;-58
2023/07/25 00:36:42;;;;;;;8.53;3.60;;;24.80;34.70;;;;;;20915644;28;20059;-60
2023/07/25 00:46:43;;;;;;;3.97;2.13;;;24.70;34.60;;;;;;20914410;28;20044;-58
2023/07/25 00:56:44;;;;;;;4.27;3.53;;;24.60;35.00;;;;;;20914095;28;20099;-59
2023/07/25 01:06:45;;;;;;;4.78;2.38;;;24.40;35.40;;;;;;20914906;28;20041;-59
2023/07/25 01:16:46;;;;;;;3.73;2.00;;;24.30;36.20;;;;;;20912585;28;20049;-58
2023/07/25 01:26:46;;;;;;;5.88;2.35;;;24.10;36.30;;;;;;20914432;28;20405;-59
2023/07/25 01:36:47;;;;;;;4.32;2.65;;;24.10;36.30;;;;;;20913351;28;20056;-58
2023/07/25 01:46:48;;;;;;;3.90;2.05;;;24.00;36.50;;;;;;20912971;28;20052;-58
2023/07/25 01:56:49;;;;;;;3.33;2.20;;;23.90;36.60;;;;;;20921706;28;20138;-59
2023/07/25 02:06:50;;;;;;;4.18;2.30;;;23.60;37.40;;;;;;20927010;28;20087;-58
2023/07/25 02:16:50;;;;;;;5.28;2.40;;;23.50;37.60;;;;;;20927428;28;20490;-59
2023/07/25 02:26:51;;;;;;;4.57;2.20;;;23.50;37.60;;;;;;20925769;28;20061;-58
2023/07/25 02:36:52;;;;;;;3.83;2.17;;;23.40;37.90;;;;;;20925708;28;20045;-58
2023/07/25 02:46:52;;;;;;;3.40;2.08;;;23.40;37.90;;;;;;20925056;28;20410;-59
2023/07/25 02:56:54;;;;;;;4.43;2.10;;;23.30;38.00;;;;;;20923093;28;20052;-58
2023/07/25 03:06:55;;;;;;;3.50;2.50;;;23.30;38.10;;;;;;20921766;28;20041;-58
2023/07/25 03:16:56;;;;;;;4.68;1.90;;;23.30;38.10;;;;;;20922997;28;20580;-58
2023/07/25 03:26:57;;;;;;;3.88;2.22;;;23.10;38.60;;;;;;20920935;28;20142;-59
2023/07/25 03:36:57;;;;;;;12.25;8.27;;;23.00;38.80;;;;;;20921212;28;20116;-58
2023/07/25 03:46:58;;;;;;;6.50;2.97;;;22.80;39.10;;;;;;20920606;28;20123;-58
2023/07/25 03:57:01;;;;;;;6.55;3.28;;;22.80;39.30;;;;;;20918237;28;20437;-59
2023/07/25 04:07:02;;;;;;;2.75;2.10;;;22.80;39.40;;;;;;20919159;28;20049;-59
2023/07/25 04:17:03;;;;;;;4.90;2.17;;;22.70;39.60;;;;;;20916451;28;20048;-59
2023/07/25 04:27:04;;;;;;;3.53;2.17;;;22.70;39.60;;;;;;20916283;28;20052;-58
2023/07/25 04:37:05;;;;;;;3.47;2.15;;;22.60;39.80;;;;;;20916891;28;20041;-59
2023/07/25 04:47:06;;;;;;;6.97;2.28;;;22.40;40.10;;;;;;20916306;28;20387;-58
2023/07/25 04:57:06;;;;;;;3.70;2.08;;;22.40;40.10;;;;;;20915232;28;20037;-60
2023/07/25 05:07:07;;;;;;;5.22;3.40;;;22.40;40.20;;;;;;20914757;28;20041;-59
2023/07/25 05:17:08;;;;;;;7.30;3.47;;;22.20;40.50;;;;;;20913654;28;20037;-58
2023/07/25 05:27:08;;;;;;;4.05;2.40;;;22.30;40.30;;;;;;20911508;28;20140;-58
2023/07/25 05:37:09;;;;;;;5.13;2.45;;;22.20;40.70;;;;;;20912972;28;20080;-60
2023/07/25 05:47:10;;;;;;;4.28;2.47;;;22.20;40.70;;;;;;20912702;28;20076;-58
2023/07/25 05:57:11;;;;;;;3.58;1.85;;;22.10;40.90;;;;;;20911846;28;20056;-59
2023/07/25 06:07:13;;;;;;;5.90;3.00;;;22.10;41.10;;;;;;20912071;28;20052;-58
2023/07/25 06:17:13;;;;;;;6.87;2.80;;;22.10;42.30;;;;;;20910336;28;20045;-58
2023/07/25 06:27:14;;;;;;;6.05;3.05;;;22.10;41.80;;;;;;20911667;28;20490;-62
2023/07/25 06:37:15;;;;;;;6.63;3.00;;;22.20;41.70;;;;;;20910751;28;20080;-58
2023/07/25 06:47:16;;;;;;;5.35;3.15;;;22.30;41.90;;;;;;20923784;28;20076;-58
2023/07/25 06:57:16;;;;;;;6.25;2.30;;;22.40;42.00;;;;;;20924102;28;20433;-58
2023/07/25 07:07:17;;;;;;;6.25;2.47;;;22.90;40.50;;;;;;20923439;28;20041;-57
2023/07/25 07:17:18;;;;;;;4.30;2.65;;;23.70;39.30;;;;;;20922595;28;20048;-59
2023/07/25 07:27:19;;;;;;;5.15;2.45;;;24.40;38.00;;;;;;20922344;28;20053;-59
2023/07/25 07:37:20;;;;;;;5.33;2.53;;;25.10;36.50;;;;;;20920273;28;20072;-58
2023/07/25 07:47:21;;;;;;;4.17;2.43;;;25.40;36.30;;;;;;20919959;28;20053;-58
2023/07/25 07:57:21;;;;;;;3.47;2.23;;;25.70;35.90;;;;;;20919156;28;20041;-59
2023/07/25 08:07:22;;;;;;;6.73;2.67;;;26.00;35.20;;;;;;20917424;28;20041;-58
2023/07/25 08:17:23;;;;;;;7.83;2.40;;;26.20;35.00;;;;;;20917676;28;20045;-59
2023/07/25 08:27:24;;;;;;;9.67;2.60;;;26.50;34.40;;;;;;20916046;28;20049;-59
2023/07/25 08:37:25;;;;;;;5.80;3.10;;;26.60;34.20;;;;;;20916185;28;20045;-58
2023/07/25 08:47:28;;;;;;;8.67;2.83;;;27.10;33.30;;;;;;20915678;28;20103;-59
2023/07/25 08:57:30;;;;;;;5.55;2.60;;;27.20;33.00;;;;;;20914233;28;20053;-58
2023/07/25 09:07:31;;;;;;;5.55;3.38;;;27.30;32.90;;;;;;20913866;28;20049;-61
2023/07/25 09:17:32;;;;;;;7.23;3.03;;;27.50;32.90;;;;;;20913648;28;20041;-57
2023/07/25 09:27:33;;;;;;;9.83;2.77;;;27.30;32.60;;;;;;20912834;28;20126;-58
2023/07/25 09:37:34;;;;;;;9.50;3.30;;;27.50;31.90;;;;;;20913077;28;20041;-59
2023/07/25 09:47:36;;;;;;;7.07;4.40;;;27.50;31.50;;;;;;20912499;28;20278;-59
2023/07/25 09:57:36;;;;;;;5.22;2.58;;;27.60;31.60;;;;;;20912729;28;20116;-59
2023/07/25 10:07:38;;;;;;;9.13;3.00;;;27.70;31.30;;;;;;20911152;28;20117;-59
2023/07/25 10:17:39;;;;;;;6.53;2.70;;;27.70;31.00;;;;;;20918874;28;20360;-60
2023/07/25 10:27:40;;;;;;;6.15;2.90;;;27.60;31.30;;;;;;20927395;28;20478;-59
2023/07/25 10:37:43;;;;;;;6.97;3.00;;;27.70;30.70;;;;;;20926324;28;20045;-59
2023/07/25 10:47:45;;;;;;;5.75;2.92;;;28.00;30.60;;;;;;20925125;28;20045;-58
2023/07/25 10:58:10;;;;;;;4.53;3.15;;;28.10;30.10;;;;;;20923202;28;20048;-59
2023/07/25 11:08:11;;;;;;;5.95;2.90;;;28.10;30.10;;;;;;20923839;28;20052;-59
2023/07/25 11:18:11;;;;;;;7.30;3.60;;;28.00;30.10;;;;;;20922356;28;20091;-60
2023/07/25 11:28:14;;;;;;;6.23;3.10;;;28.40;28.70;;;;;;20920653;28;20365;-60
2023/07/25 11:38:15;;;;;;;5.38;2.97;;;28.70;28.20;;;;;;20921496;28;20049;-60
2023/07/25 11:48:18;;;;;;;;;;;28.70;28.40;;;;;;20920963;28;20080;-59
2023/07/25 11:58:19;;;;;;;7.43;5.65;;;28.70;28.00;;;;;;20919992;28;20287;-59
2023/07/25 12:08:35;;;;;;;3.88;2.65;;;28.90;26.50;;;;;;20919408;28;20044;-59
2023/07/25 12:18:36;;;;;;;7.50;5.47;;;29.20;25.10;;;;;;20918225;28;20049;-60
2023/07/25 12:28:44;;;;;;;4.22;3.45;;;29.30;25.10;;;;;;20916390;28;20152;-61
2023/07/25 12:38:45;;;;;;;6.90;4.00;;;29.40;25.00;;;;;;20915938;28;20037;-60
2023/07/25 12:48:46;;;;;;;4.47;2.97;;;29.40;23.80;;;;;;20916398;28;20146;-59
2023/07/25 12:58:46;;;;;;;3.85;2.30;;;29.60;22.80;;;;;;20915608;28;20041;-59
2023/07/25 13:08:47;;;;;;;4.93;2.80;;;29.40;23.30;;;;;;20914877;28;20092;-60
2023/07/25 13:18:48;;;;;;;4.90;3.85;;;29.70;23.60;;;;;;20913273;28;20041;-60
2023/07/25 13:28:48;;;;;;;5.78;3.55;;;30.00;23.90;;;;;;20912713;28;20131;-59
2023/07/25 13:38:49;;;;;;;8.85;6.28;;;30.00;24.10;;;;;;20913139;28;20506;-59
2023/07/25 13:48:51;;;;;;;5.18;3.30;;;30.50;23.90;;;;;;20915432;28;20103;-59
2023/07/25 13:58:51;;;;;;;3.92;3.15;;;30.60;22.80;;;;;;20929248;28;20056;-60
2023/07/25 14:08:53;;;;;;;5.43;3.08;;;30.60;23.10;;;;;;20927375;28;20044;-60
2023/07/25 14:18:54;;;;;;;8.00;6.72;;;30.60;23.20;;;;;;20927566;28;20044;-60
2023/07/25 14:28:54;;;;;;;10.38;5.60;;;30.60;23.10;;;;;;20924919;28;20135;-61
2023/07/25 14:38:55;;;;;;;4.82;3.58;;;30.90;22.40;;;;;;20926467;28;20488;-61
2023/07/25 14:48:56;;;;;;;4.30;2.53;;;31.10;22.00;;;;;;20925543;28;20410;-60
2023/07/25 14:58:57;;;;;;;3.63;2.85;;;31.20;19.70;;;;;;20924679;28;20048;-60
2023/07/25 15:08:57;;;;;;;8.65;6.60;;;31.00;20.00;;;;;;20922907;28;20044;-61
2023/07/25 15:18:58;;;;;;;4.18;2.50;;;31.10;20.10;;;;;;20923349;28;20059;-59
2023/07/25 15:28:59;;;;;;;6.32;4.22;;;31.30;19.40;;;;;;20923331;28;20049;-60
2023/07/25 15:38:59;;;;;;;3.40;2.58;;;31.30;20.00;;;;;;20921276;28;20049;-61
2023/07/25 15:49:00;;;;;;;4.25;3.03;;;31.20;21.30;;;;;;20920562;28;20045;-60
2023/07/25 15:59:01;;;;;;;6.60;3.85;;;31.10;18.80;;;;;;20919187;28;20078;-61
2023/07/25 16:09:02;;;;;;;4.40;2.50;;;31.20;18.60;;;;;;20919062;28;20044;-59
2023/07/25 16:19:03;;;;;;;4.93;2.88;;;31.20;18.80;;;;;;20918335;28;20493;-62
2023/07/25 16:29:04;;;;;;;3.85;3.03;;;31.30;19.80;;;;;;20915827;28;20481;-63
2023/07/25 16:39:06;;;;;;;4.60;3.00;;;31.10;20.00;;;;;;20916218;28;20041;-62
2023/07/25 16:49:06;;;;;;;5.53;2.72;;;31.50;19.30;;;;;;20916038;28;20045;-61
2023/07/25 16:59:07;;;;;;;4.95;3.10;;;31.60;19.20;;;;;;20915322;28;20115;-62
2023/07/25 17:09:08;;;;;;;6.32;3.70;;;31.40;18.60;;;;;;20914722;28;20041;-62
2023/07/25 17:19:09;;;;;;;5.45;3.40;;;31.20;19.70;;;;;;20913401;28;20132;-62
2023/07/25 17:29:10;;;;;;;4.85;3.45;;;30.90;19.80;;;;;;20914205;28;20052;-63
2023/07/25 17:39:10;;;;;;;4.25;3.35;;;30.90;20.60;;;;;;20912063;28;20041;-62
2023/07/25 17:49:11;;;;;;;6.72;3.50;;;30.60;19.90;;;;;;20912916;28;20088;-58
2023/07/25 17:59:12;;;;;;;7.20;4.72;;;30.70;20.20;;;;;;20912328;28;20400;-58
2023/07/25 18:09:12;;;;;;;4.75;3.25;;;30.60;20.40;;;;;;20911854;28;20076;-59
2023/07/25 18:19:13;;;;;;;7.28;3.03;;;30.30;20.20;;;;;;20911797;28;20041;-61
2023/07/25 18:29:14;;;;;;;5.35;3.78;;;30.20;20.60;;;;;;20909860;28;20057;-58
2023/07/25 18:39:15;;;;;;;4.72;3.33;;;30.00;21.30;;;;;;20917797;28;20095;-58
2023/07/25 18:49:15;;;;;;;8.23;4.43;;;29.90;21.80;;;;;;20924471;28;20060;-59
2023/07/25 18:59:16;;;;;;;4.82;3.53;;;29.70;22.70;;;;;;20924873;28;20467;-58
2023/07/25 19:09:17;;;;;;;8.32;4.25;;;29.60;23.30;;;;;;20924356;28;20085;-59
2023/07/25 19:19:18;;;;;;;6.32;3.70;;;29.40;23.60;;;;;;20923143;28;20041;-59
2023/07/25 19:29:19;;;;;;;6.78;4.95;;;29.30;23.90;;;;;;20920755;28;20053;-60
2023/07/25 19:39:20;;;;;;;7.30;3.60;;;29.00;23.70;;;;;;20921598;28;20095;-59
2023/07/25 19:49:20;;;;;;;6.88;3.95;;;28.90;24.50;;;;;;20918735;28;20091;-58
2023/07/25 19:59:22;;;;;;;6.15;3.60;;;28.60;25.00;;;;;;20919094;28;20490;-60
2023/07/25 20:09:23;;;;;;;7.82;4.25;;;28.50;25.40;;;;;;20918227;28;20041;-61
2023/07/25 20:19:25;;;;;;;8.68;3.90;;;28.30;25.70;;;;;;20917290;28;20533;-58
2023/07/25 20:29:28;;;;;;;8.10;4.38;;;28.20;26.00;;;;;;20917572;28;20075;-60
2023/07/25 20:39:29;;;;;;;8.75;4.68;;;28.10;26.20;;;;;;20916971;28;20037;-60
2023/07/25 20:49:29;;;;;;;;;;;28.10;26.40;;;;;;20916894;28;20048;-59
2023/07/25 20:59:30;;;;;;;6.30;3.58;;;27.90;26.50;;;;;;20913768;28;19921;-60
2023/07/25 21:09:31;;;;;;;8.05;3.85;;;27.80;26.50;;;;;;20915041;28;20080;-59
2023/07/25 21:19:32;;;;;;;7.03;3.80;;;27.80;26.80;;;;;;20914769;28;20437;-60
2023/07/25 21:29:32;;;;;;;8.27;4.50;;;27.80;26.60;;;;;;20912992;28;20049;-60
2023/07/25 21:39:33;;;;;;;4.73;3.67;;;27.70;26.70;;;;;;20912407;28;20052;-60
2023/07/25 21:49:34;;;;;;;6.73;3.70;;;27.60;27.00;;;;;;20913383;28;20053;-59
2023/07/25 21:59:35;;;;;;;6.25;3.33;;;27.60;27.20;;;;;;20912555;28;20134;-58
2023/07/25 22:09:35;;;;;;;5.87;3.77;;;27.30;27.30;;;;;;20914420;28;20106;-59
2023/07/25 22:19:36;;;;;;;6.30;3.47;;;27.10;27.60;;;;;;20928240;28;20045;-59
2023/07/25 22:29:37;;;;;;;6.83;3.00;;;27.00;27.70;;;;;;20926424;28;20064;-60
2023/07/25 22:39:37;;;;;;;4.90;3.53;;;26.90;27.80;;;;;;20926517;28;20044;-59
2023/07/25 22:49:38;;;;;;;6.07;3.30;;;26.70;28.10;;;;;;20925108;28;20053;-60
2023/07/25 22:59:39;;;;;;;6.47;3.30;;;26.70;28.20;;;;;;20924995;28;20128;-59
2023/07/25 23:09:40;;;;;;;4.87;3.20;;;26.60;28.40;;;;;;20923393;28;20041;-57
2023/07/25 23:19:42;;;;;;;6.27;2.83;;;26.60;28.50;;;;;;20922208;28;20051;-58
2023/07/25 23:29:42;;;;;;;7.05;3.67;;;26.40;28.90;;;;;;20920938;28;20049;-59
2023/07/25 23:39:43;;;;;;;5.27;2.50;;;26.30;29.40;;;;;;20922320;28;20045;-59
2023/07/25 23:49:44;;;;;;;6.47;3.03;;;26.20;30.00;;;;;;20922136;28;20441;-59
2023/07/25 23:59:45;;;;;;;7.57;2.87;;;26.00;30.50;;;;;;20903392;28;20048;-59
